Time;durP1;ratioP1;P1;durP2;ratioP2;P2;SDS_P1;SDS_P2;PMS_P1;PMS_P2;Temp;Humidity;BMP_temperature;BMP_pressure;BME280_temperature;BME280_humidity;BME280_pressure;Samples;Min_cycle;Max_cycle;Signal;HPM_P1;HPM_P2
2022/05/26 00:00:21;;;;;;;;;;;;;;;13.82;57.75;97349.19;30001;983;1872;-60
2022/05/26 00:00:52;;;;;;;;;;;;;;;13.82;57.50;97349.19;30001;983;1877;-61
2022/05/26 00:01:24;;;;;;;;;;;;;;;13.82;57.61;97349.19;30001;983;1881;-61
2022/05/26 00:01:55;;;;;;;;;;;;;;;13.81;57.61;97347.59;30001;983;1755;-55
2022/05/26 00:02:27;;;;;;;;;;;;;;;13.80;57.74;97345.97;30001;983;1872;-60
2022/05/26 00:02:58;;;;;;;;;;;;;;;13.79;57.30;97357.16;30001;983;1877;-60
2022/05/26 00:03:29;;;;;;;;;;;;;;;13.77;57.02;97354.75;30001;983;1881;-61
2022/05/26 00:04:03;;;;;;;;;;;;;;;13.74;57.34;97356.16;30001;983;1877;-61
2022/05/26 00:04:37;;;;;;;;;;;;;;;13.72;57.27;97350.19;30001;983;1882;-61
2022/05/26 00:05:08;;;;;;;;;;;;;;;13.71;57.88;97358.69;30001;984;1877;-60
2022/05/26 00:05:39;;;;;;;;;;;;;;;13.70;57.69;97357.06;30001;982;1881;-61
2022/05/26 00:06:11;;;;;;;;;;;;;;;13.69;57.54;97360.91;30001;982;1877;-61
2022/05/26 00:06:42;;;;;;;;;;;;;;;13.69;57.41;97360.91;30001;982;1868;-60
2022/05/26 00:07:13;;;;;;;;;;;;;;;13.69;57.45;97355.44;30001;982;1869;-60
2022/05/26 00:07:46;;;;;;;;;;;;;;;13.69;57.50;97360.91;30001;983;1881;-61
2022/05/26 00:08:17;;;;;;;;;;;;;;;13.69;57.30;97350.78;30001;983;1877;-60
2022/05/26 00:08:50;;;;;;;;;;;;;;;13.69;57.48;97360.91;30001;983;1881;-61
2022/05/26 00:09:21;;;;;;;;;;;;;;;13.69;57.17;97363.63;30001;983;1877;-60
2022/05/26 00:09:52;;;;;;;;;;;;;;;13.70;57.99;97362.50;30001;983;1881;-60
2022/05/26 00:10:23;;;;;;;;;;;;;;;13.73;57.62;97357.25;30001;983;1779;-61
2022/05/26 00:10:55;;;;;;;;;;;;;;;13.73;57.21;97356.47;30001;985;1869;-59
2022/05/26 00:11:28;;;;;;;;;;;;;;;13.71;57.98;97351.31;30001;983;1868;-61
2022/05/26 00:12:00;;;;;;;;;;;;;;;13.70;57.77;97359.78;30001;983;1882;-61
2022/05/26 00:12:31;;;;;;;;;;;;;;;13.69;57.47;97355.44;30001;983;1877;-62
2022/05/26 00:13:03;;;;;;;;;;;;;;;13.68;57.59;97362.00;30001;982;1882;-62
2022/05/26 00:13:37;;;;;;;;;;;;;;;13.67;57.64;97363.09;30001;982;1877;-61
2022/05/26 00:14:09;;;;;;;;;;;;;;;13.70;57.91;97357.88;30001;982;1882;-60
2022/05/26 00:14:41;;;;;;;;;;;;;;;13.71;57.68;97358.69;30001;982;1878;-61
2022/05/26 00:15:13;;;;;;;;;;;;;;;13.72;57.26;97363.03;30001;982;1882;-60
2022/05/26 00:15:45;;;;;;;;;;;;;;;13.72;57.46;97363.03;30001;983;1877;-56
2022/05/26 00:16:18;;;;;;;;;;;;;;;13.70;57.38;97363.31;30001;983;1868;-61
2022/05/26 00:16:49;;;;;;;;;;;;;;;13.70;57.52;97359.78;30001;983;1868;-60
2022/05/26 00:17:21;;;;;;;;;;;;;;;13.70;57.53;97359.78;30001;983;1881;-61
2022/05/26 00:17:52;;;;;;;;;;;;;;;13.70;57.67;97357.06;30001;983;1877;-60
2022/05/26 00:18:23;;;;;;;;;;;;;;;13.68;58.52;97367.47;30001;983;1881;-56
2022/05/26 00:18:54;;;;;;;;;;;;;;;13.66;58.14;97361.50;30001;983;1877;-61
2022/05/26 00:19:26;;;;;;;;;;;;;;;13.65;57.85;97368.88;30001;983;1881;-60
2022/05/26 00:19:58;;;;;;;;;;;;;;;13.67;58.09;97366.66;30001;983;1877;-61
2022/05/26 00:20:29;;;;;;;;;;;;;;;13.70;57.96;97367.97;30001;982;1882;-60
2022/05/26 00:21:00;;;;;;;;;;;;;;;13.70;57.72;97373.41;30001;982;1877;-60
2022/05/26 00:21:32;;;;;;;;;;;;;;;13.73;57.35;97367.38;30001;982;1869;-59
2022/05/26 00:22:03;;;;;;;;;;;;;;;13.74;57.21;97363.53;30001;982;1869;-61
2022/05/26 00:22:37;;;;;;;;;;;;;;;13.78;57.18;97361.81;30001;982;1882;-59
2022/05/26 00:23:10;;;;;;;;;;;;;;;13.81;57.43;97366.69;30001;983;1863;-61
2022/05/26 00:23:41;;;;;;;;;;;;;;;13.79;57.40;97368.88;30001;983;1872;-60
2022/05/26 00:24:14;;;;;;;;;;;;;;;13.80;57.52;97366.97;30001;983;1864;-60
2022/05/26 00:24:45;;;;;;;;;;;;;;;13.80;57.55;97366.97;30001;983;1773;-60
2022/05/26 00:25:16;;;;;;;;;;;;;;;13.83;57.16;97358.19;30001;983;1877;-60
2022/05/26 00:25:47;;;;;;;;;;;;;;;13.83;56.97;97358.19;30001;983;1881;-60
2022/05/26 00:26:18;;;;;;;;;;;;;;;13.83;56.77;97361.72;30001;983;1877;-60
2022/05/26 00:26:49;;;;;;;;;;;;;;;13.82;56.85;97360.09;30001;983;1881;-56
2022/05/26 00:27:20;;;;;;;;;;;;;;;13.80;57.10;97365.06;30001;983;1877;-59
2022/05/26 00:27:51;;;;;;;;;;;;;;;13.80;56.91;97365.06;30001;982;1882;-60
2022/05/26 00:28:22;;;;;;;;;;;;;;;13.80;56.76;97362.31;30001;982;1877;-55
2022/05/26 00:28:55;;;;;;;;;;;;;;;13.83;56.82;97355.47;30001;982;1882;-58
2022/05/26 00:29:27;;;;;;;;;;;;;;;13.87;56.59;97354.53;30001;982;1864;-59
2022/05/26 00:29:58;;;;;;;;;;;;;;;13.89;56.28;97355.03;30001;982;1873;-59
2022/05/26 00:30:29;;;;;;;;;;;;;;;13.89;56.16;97355.03;30001;983;1877;-60
2022/05/26 00:31:00;;;;;;;;;;;;;;;13.89;57.20;97362.41;30001;983;1881;-60
2022/05/26 00:31:31;;;;;;;;;;;;;;;13.89;56.56;97360.50;30001;983;1877;-60
2022/05/26 00:32:03;;;;;;;;;;;;;;;13.90;56.76;97361.31;30001;965;1899;-59
2022/05/26 00:32:34;;;;;;;;;;;;;;;13.89;56.58;97359.69;30001;983;1877;-60
2022/05/26 00:33:05;;;;;;;;;;;;;;;13.87;56.40;97362.72;30001;983;1881;-62
2022/05/26 00:33:36;;;;;;;;;;;;;;;13.88;56.58;97358.88;30001;983;1877;-59
2022/05/26 00:34:08;;;;;;;;;;;;;;;13.88;56.56;97361.59;30001;983;1868;-59
2022/05/26 00:34:42;;;;;;;;;;;;;;;13.94;56.07;97362.31;30001;982;1868;-58
2022/05/26 00:35:15;;;;;;;;;;;;;;;13.94;56.48;97354.94;30001;982;1881;-60
2022/05/26 00:35:47;;;;;;;;;;;;;;;13.93;56.39;97361.50;30001;982;1877;-60
2022/05/26 00:36:37;;;;;;;;;;;;;;;13.92;56.18;97359.88;30001;982;1882;-59
2022/05/26 00:37:12;;;;;;;;;;;;;;;13.91;56.45;97362.91;30001;982;1877;-59
2022/05/26 00:37:43;;;;;;;;;;;;;;;13.89;57.36;97360.50;30001;982;1882;-61
2022/05/26 00:38:14;;;;;;;;;;;;;;;13.87;56.89;97359.97;30001;983;1877;-58
2022/05/26 00:38:46;;;;;;;;;;;;;;;13.89;56.60;97360.50;30001;983;1881;-60
2022/05/26 00:39:19;;;;;;;;;;;;;;;13.91;56.23;97363.72;30001;983;1863;-58
2022/05/26 00:39:50;;;;;;;;;;;;;;;13.91;56.53;97358.28;30001;983;1873;-59
2022/05/26 00:40:21;;;;;;;;;;;;;;;13.92;56.53;97359.06;30001;983;1877;-59
2022/05/26 00:40:59;;;;;;;;;;;;;;;13.95;56.28;97359.28;30001;983;1881;-57
2022/05/26 00:41:30;;;;;;;;;;;;;;;13.94;56.19;97352.22;30001;983;1877;-54
2022/05/26 00:42:03;;;;;;;;;;;;;;;13.94;55.88;97357.66;30001;983;1881;-60
2022/05/26 00:42:34;;;;;;;;;;;;;;;13.95;55.74;97350.28;30001;982;1877;-58
2022/05/26 00:43:07;;;;;;;;;;;;;;;13.95;56.17;97353.03;30001;982;1882;-55
2022/05/26 00:43:45;;;;;;;;;;;;;;;13.95;56.02;97353.81;30001;982;1877;-60
2022/05/26 00:44:16;;;;;;;;;;;;;;;13.94;56.42;97354.13;30001;982;1882;-59
2022/05/26 00:44:47;;;;;;;;;;;;;;;13.96;56.30;97357.38;30001;982;1865;-59
2022/05/26 00:45:18;;;;;;;;;;;;;;;13.98;55.93;97350.50;30001;982;1873;-59
2022/05/26 00:45:58;;;;;;;;;;;;;;;14.01;55.83;97352.62;30001;983;1877;-59
2022/05/26 00:46:39;;;;;;;;;;;;;;;14.02;55.89;97348.78;30001;983;1881;-59
2022/05/26 00:47:19;;;;;;;;;;;;;;;14.02;55.41;97347.97;30001;983;1877;-60
2022/05/26 00:47:51;;;;;;;;;;;;;;;14.02;55.66;97347.97;30001;983;1881;-60
2022/05/26 00:48:24;;;;;;;;;;;;;;;14.00;55.67;97356.47;30001;983;1877;-60
2022/05/26 00:48:58;;;;;;;;;;;;;;;13.98;55.96;97353.22;30001;983;1882;-58
2022/05/26 00:49:49;;;;;;;;;;;;;;;13.98;56.19;97347.78;30001;983;1864;-58
2022/05/26 00:50:22;;;;;;;;;;;;;;;14.01;55.67;97346.34;30001;982;1855;-60
2022/05/26 00:50:58;;;;;;;;;;;;;;;13.98;56.51;97353.22;30001;982;1877;-60
2022/05/26 00:51:36;;;;;;;;;;;;;;;14.00;56.25;97350.19;30001;982;1882;-59
2022/05/26 00:52:11;;;;;;;;;;;;;;;14.00;56.15;97351.00;30001;982;1877;-60
2022/05/26 00:52:45;;;;;;;;;;;;;;;13.99;56.23;97345.84;30001;982;1882;-60
2022/05/26 00:53:26;;;;;;;;;;;;;;;13.98;56.48;97353.22;30001;983;1877;-60
2022/05/26 00:53:58;;;;;;;;;;;;;;;13.96;56.29;97350.00;30001;983;1881;-60
2022/05/26 00:54:30;;;;;;;;;;;;;;;13.95;56.41;97348.37;30001;983;1877;-60
2022/05/26 00:55:04;;;;;;;;;;;;;;;13.94;56.12;97352.22;30001;983;1868;-60
2022/05/26 00:55:46;;;;;;;;;;;;;;;13.95;56.53;97347.56;30001;983;1855;-60
2022/05/26 00:56:26;;;;;;;;;;;;;;;13.94;56.59;97352.22;30001;983;1881;-60
2022/05/26 00:57:09;;;;;;;;;;;;;;;13.94;56.21;97348.69;30001;983;1877;-59
2022/05/26 00:57:43;;;;;;;;;;;;;;;13.96;56.38;97344.53;30001;982;1881;-59
2022/05/26 00:58:19;;;;;;;;;;;;;;;13.96;56.51;97350.00;30001;982;1877;-59
2022/05/26 00:58:54;;;;;;;;;;;;;;;13.95;56.67;97351.09;30001;982;1882;-58
2022/05/26 00:59:28;;;;;;;;;;;;;;;13.95;56.39;97348.37;30001;982;1877;-60
2022/05/26 01:00:06;;;;;;;;;;;;;;;13.94;56.42;97352.22;30001;983;1881;-59
2022/05/26 01:00:38;;;;;;;;;;;;;;;13.94;56.98;97351.41;30001;983;1864;-60
2022/05/26 01:01:11;;;;;;;;;;;;;;;13.93;56.84;97345.12;30001;983;1873;-60
2022/05/26 01:01:41;;;;;;;;;;;;;;;13.93;56.99;97349.78;30001;983;1877;-61
2022/05/26 01:02:13;;;;;;;;;;;;;;;13.93;56.83;97357.97;30001;983;1881;-58
2022/05/26 01:03:05;;;;;;;;;;;;;;;13.94;56.66;97348.69;30001;983;1877;-60
2022/05/26 01:03:42;;;;;;;;;;;;;;;13.92;56.88;97346.25;30001;983;1882;-60
2022/05/26 01:04:16;;;;;;;;;;;;;;;13.92;56.71;97348.97;30001;983;1877;-59
2022/05/26 01:04:53;;;;;;;;;;;;;;;13.90;56.90;97351.19;30001;982;1869;-59
2022/05/26 01:05:29;;;;;;;;;;;;;;;13.90;57.04;97350.38;30001;982;1869;-60
2022/05/26 01:06:15;;;;;;;;;;;;;;;13.90;57.13;97351.19;30001;982;1882;-60
2022/05/26 01:06:54;;;;;;;;;;;;;;;13.89;57.22;97349.59;30001;982;1878;-60
2022/05/26 01:07:28;;;;;;;;;;;;;;;13.87;58.25;97353.72;30001;983;1881;-58
2022/05/26 01:08:00;;;;;;;;;;;;;;;13.86;57.38;97355.63;30001;983;1877;-59
2022/05/26 01:08:35;;;;;;;;;;;;;;;13.88;57.19;97353.41;30001;983;1881;-58
2022/05/26 01:09:07;;;;;;;;;;;;;;;13.90;56.71;97345.75;30001;983;1864;-60
2022/05/26 01:09:38;;;;;;;;;;;;;;;13.91;56.79;97354.72;30001;983;1873;-60
2022/05/26 01:10:10;;;;;;;;;;;;;;;13.89;56.66;97343.31;30001;983;1877;-61
2022/05/26 01:10:41;;;;;;;;;;;;;;;13.88;56.66;97353.41;30001;983;1868;-59
2022/05/26 01:11:14;;;;;;;;;;;;;;;13.87;56.64;97349.06;30001;983;1868;-60
2022/05/26 01:11:45;;;;;;;;;;;;;;;13.85;56.64;97347.78;30001;983;1882;-60
2022/05/26 01:12:18;;;;;;;;;;;;;;;13.85;57.07;97348.59;30001;982;1864;-59
2022/05/26 01:12:49;;;;;;;;;;;;;;;13.83;57.10;97355.47;30001;982;1873;-61
2022/05/26 01:13:20;;;;;;;;;;;;;;;13.80;56.60;97348.69;30001;982;1877;-60
2022/05/26 01:13:54;;;;;;;;;;;;;;;13.80;57.17;97351.41;30001;982;1882;-58
2022/05/26 01:14:26;;;;;;;;;;;;;;;13.79;56.91;97347.06;30001;982;1878;-59
2022/05/26 01:15:02;;;;;;;;;;;;;;;13.81;57.75;97352.22;30001;983;1881;-61
2022/05/26 01:15:35;;;;;;;;;;;;;;;13.79;57.15;97347.06;30001;983;1876;-59
2022/05/26 01:16:20;;;;;;;;;;;;;;;13.78;57.08;97345.47;30001;983;1868;-59
2022/05/26 01:17:04;;;;;;;;;;;;;;;13.78;57.52;97348.19;30001;983;1855;-59
2022/05/26 01:18:12;;;;;;;;;;;;;;;13.77;57.22;97352.03;30001;983;1881;-60
2022/05/26 01:19:06;;;;;;;;;;;;;;;13.75;57.12;97348.78;30001;983;1873;-60
2022/05/26 01:20:01;;;;;;;;;;;;;;;13.75;57.32;97359.69;30001;983;1877;-58
2022/05/26 01:20:46;;;;;;;;;;;;;;;13.79;56.75;97338.09;30001;982;1877;-59
2022/05/26 01:21:40;;;;;;;;;;;;;;;13.79;56.69;97349.81;30001;982;1882;-56
2022/05/26 01:22:35;;;;;;;;;;;;;;;13.90;56.47;97348.47;30001;982;1864;-59
2022/05/26 01:23:27;;;;;;;;;;;;;;;13.92;56.18;97348.97;30001;983;1868;-59
2022/05/26 01:24:03;;;;;;;;;;;;;;;13.91;56.46;97346.56;30001;983;1868;-62
2022/05/26 01:25:06;;;;;;;;;;;;;;;13.89;56.31;97344.12;30001;983;1881;-59
2022/05/26 01:25:57;;;;;;;;;;;;;;;13.87;56.53;97343.63;30001;983;1859;-60
2022/05/26 01:26:47;;;;;;;;;;;;;;;13.85;56.29;97343.13;30001;983;1868;-62
2022/05/26 01:27:25;;;;;;;;;;;;;;;13.83;56.71;97342.63;30001;983;1873;-61
2022/05/26 01:28:19;;;;;;;;;;;;;;;13.86;56.67;97339.28;30001;982;1869;-60
2022/05/26 01:29:12;;;;;;;;;;;;;;;13.88;56.27;97341.69;30001;982;1864;-60
2022/05/26 01:30:01;;;;;;;;;;;;;;;13.89;56.49;97349.59;30001;982;1882;-61
2022/05/26 01:30:49;;;;;;;;;;;;;;;13.90;56.47;97345.75;30001;983;1868;-61
2022/05/26 01:31:38;;;;;;;;;;;;;;;13.90;56.51;97345.75;30001;983;1881;-60
2022/05/26 01:32:35;;;;;;;;;;;;;;;13.90;55.90;97344.94;30001;983;1855;-60
2022/05/26 01:33:18;;;;;;;;;;;;;;;13.87;56.70;97345.53;30001;983;1868;-61
2022/05/26 01:34:12;;;;;;;;;;;;;;;13.84;56.72;97346.97;30001;983;1877;-59
2022/05/26 01:34:58;;;;;;;;;;;;;;;13.87;56.33;97340.87;30001;965;1813;-59
2022/05/26 01:35:34;;;;;;;;;;;;;;;13.88;56.14;97341.69;30001;982;1877;-60
2022/05/26 01:36:16;;;;;;;;;;;;;;;13.88;56.13;97341.69;30001;982;1882;-59
2022/05/26 01:36:53;;;;;;;;;;;;;;;13.85;56.19;97334.16;30001;982;1877;-58
2022/05/26 01:37:44;;;;;;;;;;;;;;;13.87;56.14;97340.87;30001;982;1869;-54
2022/05/26 01:38:40;;;;;;;;;;;;;;;13.85;56.10;97343.13;30002;983;1859;-60
2022/05/26 01:39:30;;;;;;;;;;;;;;;13.82;56.73;97343.75;30002;983;1881;-58
2022/05/26 01:40:10;;;;;;;;;;;;;;;13.83;56.08;97341.81;30002;983;1877;-61
2022/05/26 01:40:50;;;;;;;;;;;;;;;13.77;56.82;97346.56;30002;983;1881;-60
2022/05/26 01:41:40;;;;;;;;;;;;;;;13.77;56.76;97352.03;30002;986;1869;-60
2022/05/26 01:42:21;;;;;;;;;;;;;;;13.76;56.66;97347.66;30002;985;1873;-58
2022/05/26 01:43:10;;;;;;;;;;;;;;;13.77;56.44;97343.84;30002;982;1864;-58
2022/05/26 01:43:52;;;;;;;;;;;;;;;13.76;56.39;97350.41;30002;962;1884;-52
2022/05/26 01:44:39;;;;;;;;;;;;;;;13.86;56.00;97344.72;30002;982;1877;-59
2022/05/26 01:45:28;;;;;;;;;;;;;;;13.94;55.50;97344.03;30002;983;1868;-61
2022/05/26 01:46:06;;;;;;;;;;;;;;;13.93;55.65;97347.87;30002;983;1846;-59
2022/05/26 01:46:41;;;;;;;;;;;;;;;13.95;55.40;97342.09;30002;983;1881;-60
2022/05/26 01:47:21;;;;;;;;;;;;;;;13.99;55.36;97343.94;30002;983;1877;-60
2022/05/26 01:48:01;;;;;;;;;;;;;;;13.96;55.32;97344.53;30002;983;1868;-61
2022/05/26 01:48:37;;;;;;;;;;;;;;;13.92;55.54;97337.25;30002;983;1868;-59
2022/05/26 01:49:39;;;;;;;;;;;;;;;13.88;55.71;97342.50;30002;983;1881;-61
2022/05/26 01:50:22;;;;;;;;;;;;;;;13.89;55.71;97341.41;30002;982;1873;-61
2022/05/26 01:50:56;;;;;;;;;;;;;;;13.89;55.37;97343.31;30002;982;1868;-59
2022/05/26 01:51:38;;;;;;;;;;;;;;;13.88;55.50;97339.78;30002;982;1869;-60
2022/05/26 01:52:17;;;;;;;;;;;;;;;13.88;55.75;97339.78;30002;982;1882;-58
2022/05/26 01:53:09;;;;;;;;;;;;;;;13.95;55.12;97337.47;30002;983;1877;-60
2022/05/26 01:54:15;;;;;;;;;;;;;;;13.92;55.27;97343.53;30002;983;1881;-60
2022/05/26 01:55:07;;;;;;;;;;;;;;;13.88;55.81;97341.69;30002;983;1859;-59
2022/05/26 01:55:58;;;;;;;;;;;;;;;13.85;55.64;97337.69;30002;983;1873;-59
2022/05/26 01:56:48;;;;;;;;;;;;;;;13.87;55.44;97340.09;30002;983;1873;-60
2022/05/26 01:57:39;;;;;;;;;;;;;;;13.88;55.10;97337.06;30002;982;1873;-57
2022/05/26 01:58:15;;;;;;;;;;;;;;;13.89;55.38;97346.84;30002;982;1873;-60
2022/05/26 01:58:49;;;;;;;;;;;;;;;13.90;55.32;97343.00;30002;982;1882;-59
2022/05/26 01:59:23;;;;;;;;;;;;;;;13.88;55.56;97342.50;30002;982;1865;-62
2022/05/26 02:00:00;;;;;;;;;;;;;;;13.85;55.42;97345.88;30002;982;1873;-61
2022/05/26 02:00:31;;;;;;;;;;;;;;;13.82;55.66;97345.66;30002;983;1864;-60
2022/05/26 02:01:06;;;;;;;;;;;;;;;13.78;55.92;97348.19;30002;983;1873;-60
2022/05/26 02:01:40;;;;;;;;;;;;;;;13.77;55.71;97341.09;30002;983;1877;-60
2022/05/26 02:02:29;;;;;;;;;;;;;;;13.76;56.35;97350.41;30002;983;1881;-60
2022/05/26 02:03:08;;;;;;;;;;;;;;;13.75;56.38;97356.97;30002;983;1873;-60
2022/05/26 02:03:40;;;;;;;;;;;;;;;13.74;56.24;97355.34;30002;983;1882;-60
2022/05/26 02:04:14;;;;;;;;;;;;;;;13.74;56.31;97347.16;30002;983;1877;-58
2022/05/26 02:04:49;;;;;;;;;;;;;;;13.78;55.90;97340.00;30002;982;1882;-61
2022/05/26 02:05:21;;;;;;;;;;;;;;;13.79;55.87;97349.00;30002;982;1864;-56
2022/05/26 02:05:54;;;;;;;;;;;;;;;13.78;56.01;97345.47;30002;982;1873;-60
2022/05/26 02:06:29;;;;;;;;;;;;;;;13.76;56.06;97350.41;30002;982;1877;-58
2022/05/26 02:07:09;;;;;;;;;;;;;;;13.76;56.00;97344.94;30002;983;1881;-60
2022/05/26 02:07:45;;;;;;;;;;;;;;;13.75;55.49;97348.78;30002;983;1877;-60
2022/05/26 02:08:20;;;;;;;;;;;;;;;13.78;55.74;97341.91;30002;983;1881;-60
2022/05/26 02:09:07;;;;;;;;;;;;;;;13.76;55.74;97339.50;30002;983;1864;-59
2022/05/26 02:09:41;;;;;;;;;;;;;;;13.75;56.16;97343.31;30002;983;1872;-61
2022/05/26 02:10:15;;;;;;;;;;;;;;;13.73;56.03;97340.09;30002;983;1864;-61
2022/05/26 02:11:00;;;;;;;;;;;;;;;13.71;56.03;97353.22;30002;983;1872;-60
2022/05/26 02:11:35;;;;;;;;;;;;;;;13.76;55.58;97344.94;30002;983;1877;-59
2022/05/26 02:12:21;;;;;;;;;;;;;;;13.76;55.69;97350.41;30002;982;1881;-60
2022/05/26 02:12:57;;;;;;;;;;;;;;;13.74;55.94;97347.16;30002;982;1878;-54
2022/05/26 02:14:00;;;;;;;;;;;;;;;13.72;56.33;97346.66;30002;982;1882;-60
2022/05/26 02:14:33;;;;;;;;;;;;;;;13.69;56.25;97353.53;30002;983;1872;-54
2022/05/26 02:15:07;;;;;;;;;;;;;;;13.74;55.98;97341.72;30002;983;1881;-61
2022/05/26 02:15:52;;;;;;;;;;;;;;;13.73;55.91;97346.34;30002;983;1863;-58
2022/05/26 02:16:42;;;;;;;;;;;;;;;13.78;55.40;97348.19;30002;983;1872;-61
2022/05/26 02:17:33;;;;;;;;;;;;;;;13.75;55.76;97343.31;30002;983;1873;-60
2022/05/26 02:18:14;;;;;;;;;;;;;;;13.73;56.29;97345.53;30002;983;1877;-54
2022/05/26 02:18:54;;;;;;;;;;;;;;;13.73;55.93;97356.47;30002;983;1877;-60
2022/05/26 02:19:29;;;;;;;;;;;;;;;13.70;56.13;97354.31;30002;982;1882;-59
2022/05/26 02:20:03;;;;;;;;;;;;;;;13.69;56.18;97349.97;30002;982;1877;-59
2022/05/26 02:20:41;;;;;;;;;;;;;;;13.70;55.74;97348.87;30002;982;1882;-60
2022/05/26 02:21:16;;;;;;;;;;;;;;;13.70;56.17;97351.59;30002;982;1864;-60
2022/05/26 02:22:05;;;;;;;;;;;;;;;13.68;56.49;97349.19;30002;982;1873;-61
2022/05/26 02:22:41;;;;;;;;;;;;;;;13.67;56.26;97350.28;30002;983;1877;-60
2022/05/26 02:23:23;;;;;;;;;;;;;;;13.67;56.35;97354.94;30002;983;1881;-60
2022/05/26 02:24:06;;;;;;;;;;;;;;;13.67;56.27;97344.84;30002;983;1877;-55
2022/05/26 02:24:41;;;;;;;;;;;;;;;13.73;56.17;97348.28;30002;983;1881;-60
2022/05/26 02:25:16;;;;;;;;;;;;;;;13.73;55.77;97351.00;30002;983;1877;-62
2022/05/26 02:25:48;;;;;;;;;;;;;;;13.70;56.18;97340.69;30002;983;1882;-59
2022/05/26 02:26:19;;;;;;;;;;;;;;;13.68;56.47;97354.63;30002;983;1864;-60
2022/05/26 02:26:50;;;;;;;;;;;;;;;13.68;56.21;97338.28;30002;983;1873;-60
2022/05/26 02:27:21;;;;;;;;;;;;;;;13.67;56.50;97352.19;30002;982;1877;-58
2022/05/26 02:27:54;;;;;;;;;;;;;;;13.67;56.32;97349.47;30002;982;1869;-60
2022/05/26 02:28:25;;;;;;;;;;;;;;;13.65;56.52;97348.97;30002;982;1869;-60
2022/05/26 02:29:52;;;;;;;;;;;;;;;13.57;57.98;97366.81;30001;983;1877;-60
2022/05/26 02:30:25;;;;;;;;;;;;;;;13.58;57.36;97360.25;30001;983;1881;-57
2022/05/26 02:30:58;;;;;;;;;;;;;;;13.63;56.28;97353.91;30001;983;1877;-54
2022/05/26 02:31:30;;;;;;;;;;;;;;;13.62;56.66;97355.81;30001;983;1881;-59
2022/05/26 02:32:03;;;;;;;;;;;;;;;13.69;56.25;97360.91;30001;983;1877;-58
2022/05/26 02:32:36;;;;;;;;;;;;;;;13.73;56.09;97345.53;30001;983;1868;-57
2022/05/26 02:33:11;;;;;;;;;;;;;;;13.76;55.85;97344.94;30001;983;1868;-61
2022/05/26 02:33:43;;;;;;;;;;;;;;;13.77;55.78;97346.56;30001;982;1882;-60
2022/05/26 02:34:16;;;;;;;;;;;;;;;13.73;55.82;97345.53;30001;982;1864;-61
2022/05/26 02:34:48;;;;;;;;;;;;;;;13.69;56.22;97339.88;30001;982;1873;-61
2022/05/26 02:35:27;;;;;;;;;;;;;;;13.67;56.32;97352.19;30001;982;1877;-61
2022/05/26 02:35:58;;;;;;;;;;;;;;;13.66;56.71;97348.66;30001;982;1882;-57
2022/05/26 02:36:30;;;;;;;;;;;;;;;13.69;55.93;97349.97;30001;982;1877;-60
2022/05/26 02:37:02;;;;;;;;;;;;;;;13.68;56.41;97348.37;30001;983;1881;-57
2022/05/26 02:37:35;;;;;;;;;;;;;;;13.69;56.12;97349.97;30001;983;1877;-55
2022/05/26 02:38:08;;;;;;;;;;;;;;;13.69;56.70;97349.97;30001;983;1881;-59
2022/05/26 02:38:39;;;;;;;;;;;;;;;13.71;56.21;97347.75;30001;983;1877;-54
2022/05/26 02:39:10;;;;;;;;;;;;;;;13.72;56.39;97339.28;30001;983;1881;-54
2022/05/26 02:39:41;;;;;;;;;;;;;;;13.74;56.17;97341.72;30001;986;1865;-59
2022/05/26 02:40:12;;;;;;;;;;;;;;;13.77;56.12;97343.03;30001;983;1872;-56
2022/05/26 02:40:44;;;;;;;;;;;;;;;13.78;56.25;97341.91;30001;983;1877;-58
2022/05/26 02:41:15;;;;;;;;;;;;;;;13.81;56.03;97344.84;30001;982;1881;-54
2022/05/26 02:41:47;;;;;;;;;;;;;;;13.86;55.67;97336.53;30001;982;1877;-60
2022/05/26 02:42:19;;;;;;;;;;;;;;;13.84;56.03;97341.53;30001;982;1882;-54
2022/05/26 02:42:55;;;;;;;;;;;;;;;13.78;56.56;97337.28;30001;982;1864;-59
2022/05/26 02:43:27;;;;;;;;;;;;;;;13.74;56.47;97339.78;30001;982;1873;-55
2022/05/26 02:43:59;;;;;;;;;;;;;;;13.74;56.28;97341.72;30001;982;1878;-53
2022/05/26 02:44:32;;;;;;;;;;;;;;;13.75;56.27;97349.59;30001;982;1882;-54
2022/05/26 02:45:03;;;;;;;;;;;;;;;13.78;55.97;97344.66;30001;985;1868;-59
2022/05/26 02:45:52;;;;;;;;;;;;;;;13.76;56.14;97347.66;30001;983;1881;-61
2022/05/26 02:46:42;;;;;;;;;;;;;;;13.73;56.29;97345.53;30001;983;1868;-53
2022/05/26 02:47:26;;;;;;;;;;;;;;;13.70;56.48;97341.50;30001;983;1877;-60
2022/05/26 02:48:14;;;;;;;;;;;;;;;13.78;56.18;97342.72;30001;983;1864;-58
2022/05/26 02:48:55;;;;;;;;;;;;;;;13.80;56.07;97345.97;30001;982;1873;-55
2022/05/26 02:49:39;;;;;;;;;;;;;;;13.78;56.02;97350.91;30001;982;1877;-58
2022/05/26 02:50:35;;;;;;;;;;;;;;;13.74;56.68;97344.44;30001;982;1882;-60
2022/05/26 02:51:44;;;;;;;;;;;;;;;13.67;56.51;97346.75;30001;982;1873;-56
2022/05/26 02:52:39;;;;;;;;;;;;;;;13.59;57.37;97358.34;30001;983;1868;-55
2022/05/26 02:53:24;;;;;;;;;;;;;;;13.64;56.81;97358.25;30001;983;1868;-60
2022/05/26 02:54:00;;;;;;;;;;;;;;;13.63;56.73;97360.16;30001;983;1886;-54
2022/05/26 02:54:53;;;;;;;;;;;;;;;13.63;57.18;97362.09;30001;983;1881;-60
2022/05/26 02:55:32;;;;;;;;;;;;;;;13.62;56.97;97360.47;30001;983;1881;-62
2022/05/26 02:56:16;;;;;;;;;;;;;;;13.65;56.84;97365.31;30001;983;1882;-61
2022/05/26 02:56:57;;;;;;;;;;;;;;;13.66;56.72;97350.59;30001;982;1886;-56
2022/05/26 02:57:38;;;;;;;;;;;;;;;13.64;56.82;97358.25;30001;982;1868;-54
2022/05/26 02:58:15;;;;;;;;;;;;;;;13.62;57.04;97358.56;30001;982;1877;-54
2022/05/26 02:58:57;;;;;;;;;;;;;;;13.60;56.61;97357.25;30001;982;1882;-58
2022/05/26 02:59:39;;;;;;;;;;;;;;;13.62;57.12;97357.75;30001;982;1886;-60
2022/05/26 03:00:14;;;;;;;;;;;;;;;13.62;57.15;97355.03;30001;983;1881;-60
2022/05/26 03:01:04;;;;;;;;;;;;;;;13.63;57.15;97364.81;30001;983;1872;-59
2022/05/26 03:01:40;;;;;;;;;;;;;;;13.65;56.70;97357.16;30001;983;1855;-60
2022/05/26 03:02:14;;;;;;;;;;;;;;;13.63;56.72;97362.09;30001;983;1886;-60
2022/05/26 03:03:04;;;;;;;;;;;;;;;13.61;56.98;97364.31;30001;983;1868;-58
2022/05/26 03:03:36;;;;;;;;;;;;;;;13.58;56.91;97359.44;30001;983;1868;-59
2022/05/26 03:04:23;;;;;;;;;;;;;;;13.56;57.67;97358.94;30001;982;1882;-61
2022/05/26 03:04:59;;;;;;;;;;;;;;;13.52;57.28;97355.19;30001;982;1886;-55
2022/05/26 03:05:48;;;;;;;;;;;;;;;13.52;57.46;97366.91;30001;982;1868;-56
2022/05/26 03:06:29;;;;;;;;;;;;;;;13.56;56.85;97356.22;30001;982;1869;-61
2022/05/26 03:07:08;;;;;;;;;;;;;;;13.58;57.03;97359.44;30001;983;1868;-56
2022/05/26 03:07:41;;;;;;;;;;;;;;;13.57;57.25;97363.28;30001;983;1876;-60
2022/05/26 03:08:15;;;;;;;;;;;;;;;13.55;59.27;97370.97;30001;983;1881;-60
2022/05/26 03:08:47;;;;;;;;;;;;;;;13.51;58.18;97367.25;30001;983;1885;-55
2022/05/26 03:09:19;;;;;;;;;;;;;;;13.49;58.32;97369.47;30001;983;1868;-61
2022/05/26 03:09:51;;;;;;;;;;;;;;;13.47;57.90;97368.94;30001;983;1877;-60
2022/05/26 03:10:26;;;;;;;;;;;;;;;13.45;57.72;97366.50;30001;983;1868;-60
2022/05/26 03:11:06;;;;;;;;;;;;;;;13.44;58.12;97369.53;30001;983;1877;-54
2022/05/26 03:11:53;;;;;;;;;;;;;;;13.41;57.80;97371.75;30001;982;1881;-61
2022/05/26 03:12:30;;;;;;;;;;;;;;;13.46;57.75;97364.59;30001;982;1873;-60
2022/05/26 03:13:01;;;;;;;;;;;;;;;13.49;57.64;97369.47;30001;982;1860;-62
2022/05/26 03:13:32;;;;;;;;;;;;;;;13.50;57.50;97368.34;30001;982;1886;-59
2022/05/26 03:14:03;;;;;;;;;;;;;;;13.48;58.44;97376.00;30001;983;1881;-61
2022/05/26 03:14:34;;;;;;;;;;;;;;;13.49;58.11;97367.53;30001;983;1885;-54
2022/05/26 03:15:06;;;;;;;;;;;;;;;13.50;57.90;97365.63;30001;983;1881;-56
2022/05/26 03:15:38;;;;;;;;;;;;;;;13.49;57.60;97366.72;30001;983;1885;-61
2022/05/26 03:16:10;;;;;;;;;;;;;;;13.49;57.68;97361.28;30001;983;1881;-54
2022/05/26 03:16:41;;;;;;;;;;;;;;;13.47;57.81;97368.94;30001;983;1872;-58
2022/05/26 03:17:12;;;;;;;;;;;;;;;13.48;57.80;97368.66;30001;983;1859;-61
2022/05/26 03:17:43;;;;;;;;;;;;;;;13.48;57.71;97365.91;30001;983;1885;-55
2022/05/26 03:18:14;;;;;;;;;;;;;;;13.48;58.01;97362.38;30001;983;1881;-61
2022/05/26 03:18:45;;;;;;;;;;;;;;;13.45;57.84;97366.50;30001;983;1886;-60
2022/05/26 03:19:17;;;;;;;;;;;;;;;13.47;57.81;97364.31;30001;982;1882;-59
2022/05/26 03:19:48;;;;;;;;;;;;;;;13.50;57.58;97357.44;30001;982;1886;-60
2022/05/26 03:20:18;;;;;;;;;;;;;;;13.48;57.66;97365.91;30001;982;1882;-60